createdAt,value
2022-07-31T00:01:55.052Z,67.79
2022-07-31T00:04:40.828Z,68.03
2022-07-31T00:07:26.447Z,67.52
2022-07-31T00:10:11.941Z,67.54
2022-07-31T00:12:57.260Z,68.31
2022-07-31T00:15:42.879Z,68.26
2022-07-31T00:18:28.444Z,68.17
2022-07-31T00:21:14.145Z,68.24
2022-07-31T00:23:59.932Z,68.08
2022-07-31T00:26:45.573Z,67.95
2022-07-31T00:29:31.932Z,68.17
2022-07-31T00:32:17.505Z,68.65
2022-07-31T00:35:02.950Z,69.20
2022-07-31T00:37:48.543Z,68.81
2022-07-31T00:40:34.270Z,69.20
2022-07-31T00:43:19.746Z,68.59
2022-07-31T00:46:05.123Z,68.81
2022-07-31T00:48:50.769Z,69.14
2022-07-31T00:51:38.089Z,69.29
2022-07-31T00:54:23.419Z,69.56
2022-07-31T00:57:09.741Z,69.27
2022-07-31T00:59:55.184Z,69.06
2022-07-31T01:02:46.608Z,68.90
2022-07-31T01:05:32.658Z,68.22
2022-07-31T01:08:18.447Z,69.45
2022-07-31T01:11:10.293Z,69.15
2022-07-31T01:14:02.472Z,68.89
2022-07-31T01:16:51.610Z,69.60
2022-07-31T01:19:44.567Z,69.78
2022-07-31T01:22:51.874Z,68.86
2022-07-31T01:25:54.952Z,69.25
2022-07-31T01:28:58.054Z,69.17
2022-07-31T01:31:48.058Z,68.52
2022-07-31T01:34:38.131Z,69.06
2022-07-31T01:38:04.135Z,69.77
2022-07-31T01:41:01.370Z,70.44
2022-07-31T01:43:50.973Z,69.67
2022-07-31T01:46:41.693Z,70.18
2022-07-31T01:49:31.498Z,69.76
2022-07-31T01:52:19.213Z,69.95
2022-07-31T01:55:05.655Z,69.82
2022-07-31T01:57:54.390Z,69.47
2022-07-31T02:00:41.743Z,69.97
2022-07-31T02:03:44.410Z,70.27
2022-07-31T02:06:34.092Z,70.08
2022-07-31T02:09:22.065Z,69.91
2022-07-31T02:12:10.570Z,69.91
2022-07-31T02:14:57.245Z,69.92
2022-07-31T02:17:45.199Z,70.32
2022-07-31T02:20:55.249Z,70.03
2022-07-31T02:23:41.127Z,70.32
2022-07-31T02:26:30.754Z,70.25
2022-07-31T02:29:20.365Z,70.83
2022-07-31T02:32:07.973Z,70.23
2022-07-31T02:34:55.827Z,70.85
2022-07-31T02:37:42.785Z,70.96
2022-07-31T02:40:28.665Z,70.79
2022-07-31T02:43:15.349Z,70.87
2022-07-31T02:46:01.862Z,70.62
2022-07-31T02:48:49.666Z,70.60
2022-07-31T02:51:42.894Z,70.90
2022-07-31T02:54:29.393Z,70.75
2022-07-31T02:57:15.213Z,71.04
2022-07-31T03:00:01.082Z,72.29
2022-07-31T03:02:47.011Z,72.35
2022-07-31T03:05:32.679Z,72.74
2022-07-31T03:08:18.873Z,72.15
2022-07-31T03:11:06.919Z,72.34
2022-07-31T03:13:55.821Z,71.77
2022-07-31T03:16:42.281Z,71.84
2022-07-31T03:19:28.962Z,71.25
2022-07-31T03:22:15.615Z,72.01
2022-07-31T03:25:04.290Z,71.31
2022-07-31T03:27:56.358Z,71.48
2022-07-31T03:30:43.180Z,71.11
2022-07-31T03:33:28.781Z,71.76
2022-07-31T03:36:15.041Z,71.50
2022-07-31T03:39:00.331Z,71.46
2022-07-31T03:41:58.537Z,71.79
2022-07-31T03:44:44.675Z,71.84
2022-07-31T03:47:30.744Z,71.60
2022-07-31T03:50:17.398Z,71.93
2022-07-31T03:53:04.806Z,71.92
2022-07-31T03:55:53.450Z,72.14
2022-07-31T03:58:39.469Z,72.14
2022-07-31T04:01:24.863Z,71.96
2022-07-31T04:04:14.700Z,72.03
2022-07-31T04:07:14.848Z,71.77
2022-07-31T04:10:00.286Z,72.27
2022-07-31T04:12:45.705Z,72.07
2022-07-31T04:15:32.715Z,72.13
2022-07-31T04:18:18.480Z,71.79
2022-07-31T04:21:04.587Z,71.29
2022-07-31T04:23:50.376Z,71.14
2022-07-31T04:26:42.728Z,70.63
2022-07-31T04:29:31.215Z,70.06
2022-07-31T04:32:17.362Z,70.13
2022-07-31T04:35:09.577Z,70.00
2022-07-31T04:37:55.261Z,70.02
2022-07-31T04:40:41.741Z,69.29
2022-07-31T04:43:27.360Z,68.91
2022-07-31T04:46:17.560Z,68.30
2022-07-31T04:49:03.814Z,68.57
2022-07-31T04:51:49.958Z,68.04
2022-07-31T04:54:38.537Z,68.02
2022-07-31T04:57:26.526Z,67.55
2022-07-31T05:00:12.642Z,67.11
2022-07-31T05:02:58.343Z,66.18
2022-07-31T05:05:45.541Z,64.57
2022-07-31T05:08:31.082Z,64.08
2022-07-31T05:11:22.898Z,63.57
2022-07-31T05:14:10.505Z,62.91
2022-07-31T05:16:56.046Z,61.38
2022-07-31T05:19:42.273Z,59.69
2022-07-31T05:22:46.850Z,60.42
2022-07-31T05:25:50.793Z,60.15
2022-07-31T05:28:37.151Z,59.54
2022-07-31T05:31:23.092Z,59.08
2022-07-31T05:34:09.280Z,58.55
2022-07-31T05:36:55.169Z,58.05
2022-07-31T05:39:41.788Z,57.57
2022-07-31T05:42:46.452Z,57.13
2022-07-31T05:46:06.278Z,56.21
2022-07-31T05:48:52.101Z,55.15
2022-07-31T05:51:38.921Z,54.84
2022-07-31T05:54:24.563Z,54.18
2022-07-31T05:57:33.681Z,53.02
2022-07-31T06:00:21.253Z,52.21
2022-07-31T06:03:07.663Z,52.62
2022-07-31T06:06:26.007Z,51.55
2022-07-31T06:09:11.824Z,51.59
2022-07-31T06:12:10.034Z,48.04
2022-07-31T06:30:15.243Z,50.65
2022-07-31T06:33:01.087Z,49.64
2022-07-31T06:35:55.150Z,48.85
2022-07-31T06:38:53.245Z,46.28
2022-07-31T06:41:47.538Z,48.68
2022-07-31T06:44:45.781Z,48.11
2022-07-31T06:48:15.167Z,47.75
2022-07-31T06:51:29.639Z,48.44
2022-07-31T06:54:12.476Z,47.35
2022-07-31T06:56:57.783Z,46.96
2022-07-31T06:59:43.226Z,45.81
2022-07-31T07:08:20.826Z,45.26
2022-07-31T07:11:12.499Z,44.71
2022-07-31T07:14:06.024Z,46.04
2022-07-31T07:16:52.174Z,46.25
2022-07-31T07:19:41.978Z,46.30
2022-07-31T07:22:32.768Z,45.63
2022-07-31T07:25:22.011Z,45.33
2022-07-31T07:28:14.956Z,45.08
2022-07-31T07:31:06.594Z,47.11
2022-07-31T07:33:52.779Z,47.45
2022-07-31T07:36:41.856Z,47.75
2022-07-31T07:39:33.425Z,48.67
2022-07-31T07:42:20.256Z,48.61
2022-07-31T07:45:07.872Z,49.01
2022-07-31T07:48:05.333Z,49.09
2022-07-31T07:51:04.503Z,49.42
2022-07-31T07:53:58.702Z,50.14
2022-07-31T07:57:18.484Z,50.22
2022-07-31T08:00:23.772Z,50.10
2022-07-31T08:03:48.492Z,50.03
2022-07-31T08:06:25.976Z,50.26
2022-07-31T08:09:12.401Z,50.18
2022-07-31T08:12:31.148Z,50.57
2022-07-31T08:15:26.536Z,50.34
2022-07-31T08:18:39.792Z,49.83
2022-07-31T08:21:26.776Z,50.39
2022-07-31T08:24:16.504Z,49.94
2022-07-31T08:27:21.504Z,49.01
2022-07-31T08:30:08.285Z,49.35
2022-07-31T08:32:54.865Z,49.97
2022-07-31T08:35:51.944Z,49.60
2022-07-31T08:38:39.557Z,49.29
2022-07-31T08:41:46.024Z,49.59
2022-07-31T08:44:32.976Z,48.95
2022-07-31T08:47:19.847Z,49.41
2022-07-31T08:50:08.528Z,49.24
2022-07-31T08:52:55.346Z,48.71
2022-07-31T08:55:56.681Z,48.93
2022-07-31T08:58:47.647Z,48.37
2022-07-31T09:01:35.145Z,48.34
2022-07-31T09:04:21.334Z,48.62
2022-07-31T09:07:14.774Z,48.39
2022-07-31T09:10:02.603Z,47.70
2022-07-31T09:12:49.115Z,46.08
2022-07-31T09:15:36.602Z,47.27
2022-07-31T09:21:20.415Z,46.37
2022-07-31T09:24:08.479Z,46.63
2022-07-31T09:27:06.068Z,46.34
2022-07-31T09:29:52.922Z,46.38
2022-07-31T09:32:51.474Z,46.56
2022-07-31T09:35:49.097Z,46.12
2022-07-31T09:38:38.783Z,45.66
2022-07-31T09:42:01.869Z,42.72
2022-07-31T09:45:21.423Z,42.42
2022-07-31T09:48:14.362Z,43.63
2022-07-31T09:51:08.887Z,42.60
2022-07-31T09:53:56.692Z,42.28
2022-07-31T09:57:21.270Z,41.64
2022-07-31T10:00:17.157Z,39.55
2022-07-31T10:03:05.089Z,39.77
2022-07-31T10:05:53.060Z,39.99
2022-07-31T10:08:41.936Z,40.68
2022-07-31T10:11:47.321Z,42.20
2022-07-31T10:14:41.378Z,42.20
2022-07-31T10:17:36.057Z,41.60
2022-07-31T10:20:42.262Z,40.38
2022-07-31T10:23:44.852Z,39.30
2022-07-31T10:26:57.807Z,39.66
2022-07-31T10:29:40.369Z,38.10
2022-07-31T10:32:27.222Z,36.63
2022-07-31T10:35:35.293Z,37.42
2022-07-31T10:38:25.848Z,38.00
2022-07-31T10:41:42.508Z,37.84
2022-07-31T10:44:39.940Z,38.20
2022-07-31T10:47:38.484Z,37.49
2022-07-31T10:50:32.159Z,37.83
2022-07-31T10:53:51.616Z,38.11
2022-07-31T10:57:00.293Z,38.72
2022-07-31T11:00:34.428Z,39.09
2022-07-31T11:03:47.582Z,37.60
2022-07-31T11:06:50.616Z,37.33
2022-07-31T11:09:55.609Z,37.70
2022-07-31T11:13:11.140Z,37.50
2022-07-31T11:16:32.532Z,37.54
2022-07-31T11:19:24.613Z,37.17
2022-07-31T11:22:31.819Z,36.24
2022-07-31T11:25:21.544Z,36.11
2022-07-31T11:28:12.707Z,36.34
2022-07-31T11:31:02.555Z,36.35
2022-07-31T11:33:49.721Z,35.81
2022-07-31T11:39:36.429Z,34.65
2022-07-31T11:42:27.741Z,35.10
2022-07-31T11:45:16.847Z,34.73
2022-07-31T11:48:11.034Z,33.25
2022-07-31T11:51:01.608Z,34.65
2022-07-31T11:53:57.351Z,34.52
2022-07-31T11:56:44.344Z,34.07
2022-07-31T11:59:45.343Z,35.17
2022-07-31T12:02:32.796Z,35.61
2022-07-31T12:05:19.107Z,35.13
2022-07-31T12:08:25.803Z,34.85
2022-07-31T12:11:12.914Z,34.83
2022-07-31T12:17:05.708Z,36.04
2022-07-31T12:19:57.464Z,36.51
2022-07-31T12:22:57.674Z,36.68
2022-07-31T12:29:25.253Z,36.89
2022-07-31T12:32:11.652Z,36.47
2022-07-31T12:35:03.215Z,36.56
2022-07-31T12:41:06.363Z,37.25
2022-07-31T12:43:52.957Z,36.57
2022-07-31T12:46:38.646Z,35.61
2022-07-31T12:49:24.899Z,35.76
2022-07-31T12:55:17.106Z,36.16
2022-07-31T12:58:29.032Z,33.48
2022-07-31T13:04:19.443Z,35.24
2022-07-31T13:07:06.779Z,35.20
2022-07-31T13:13:25.759Z,33.83
2022-07-31T13:16:12.420Z,33.40
2022-07-31T13:18:58.399Z,32.89
2022-07-31T13:21:49.603Z,33.75
2022-07-31T13:24:36.189Z,33.86
2022-07-31T13:27:22.403Z,33.55
2022-07-31T13:30:09.262Z,33.44
2022-07-31T13:32:55.579Z,31.27
2022-07-31T13:35:42.048Z,32.11
2022-07-31T13:38:28.157Z,31.89
2022-07-31T13:41:34.583Z,33.27
2022-07-31T13:44:20.923Z,32.89
2022-07-31T13:47:07.033Z,32.82
2022-07-31T13:49:53.817Z,31.93
2022-07-31T13:55:38.133Z,31.21
2022-07-31T13:58:23.922Z,31.27
2022-07-31T14:01:10.186Z,31.33
2022-07-31T14:03:56.453Z,31.44
2022-07-31T14:06:43.981Z,31.44
2022-07-31T14:09:34.348Z,30.16
2022-07-31T14:12:20.531Z,31.17
2022-07-31T14:15:07.630Z,30.40
2022-07-31T14:17:53.417Z,31.74
2022-07-31T14:20:39.369Z,31.86
2022-07-31T14:23:34.236Z,31.72
2022-07-31T14:26:21.345Z,31.85
2022-07-31T14:29:07.633Z,32.36
2022-07-31T14:31:54.077Z,31.77
2022-07-31T14:34:40.122Z,32.23
2022-07-31T14:37:26.447Z,32.03
2022-07-31T14:40:13.012Z,32.09
2022-07-31T14:42:59.070Z,31.34
2022-07-31T14:45:51.319Z,31.21
2022-07-31T14:48:39.024Z,31.59
2022-07-31T14:51:24.832Z,32.27
2022-07-31T14:54:10.831Z,31.13
2022-07-31T14:57:01.496Z,31.80
2022-07-31T14:59:48.335Z,31.60
2022-07-31T15:02:34.125Z,31.50
2022-07-31T15:06:41.881Z,30.68
2022-07-31T15:08:26.483Z,31.01
2022-07-31T15:11:12.250Z,31.22
2022-07-31T15:13:58.499Z,31.72
2022-07-31T15:16:44.688Z,32.19
2022-07-31T15:19:35.907Z,31.59
2022-07-31T15:22:22.373Z,30.95
2022-07-31T15:28:04.064Z,32.40
2022-07-31T15:33:51.981Z,33.29
2022-07-31T15:36:37.927Z,33.32
2022-07-31T15:39:24.282Z,33.40
2022-07-31T15:42:15.103Z,33.79
2022-07-31T15:45:02.045Z,33.37
2022-07-31T15:47:48.986Z,33.38
2022-07-31T15:50:36.050Z,33.14
2022-07-31T15:53:22.391Z,32.36
2022-07-31T15:56:08.445Z,32.84
2022-07-31T15:58:54.904Z,32.66
2022-07-31T16:01:40.730Z,33.53
2022-07-31T16:04:29.927Z,33.42
2022-07-31T16:08:32.162Z,33.59
2022-07-31T16:10:26.454Z,33.54
2022-07-31T16:13:13.065Z,33.86
2022-07-31T16:15:59.164Z,34.15
2022-07-31T16:18:45.367Z,34.08
2022-07-31T16:21:32.213Z,34.27
2022-07-31T16:24:18.092Z,34.19
2022-07-31T16:27:07.334Z,34.34
2022-07-31T16:29:59.794Z,34.34
2022-07-31T16:32:49.555Z,34.47
2022-07-31T16:35:36.158Z,34.72
2022-07-31T16:38:22.384Z,34.98
2022-07-31T16:41:08.929Z,35.18
2022-07-31T16:43:55.064Z,34.93
2022-07-31T16:46:41.865Z,35.32
2022-07-31T16:49:35.151Z,35.32
2022-07-31T16:52:23.063Z,35.41
2022-07-31T16:55:09.345Z,35.55
2022-07-31T16:57:55.218Z,35.54
2022-07-31T17:00:41.425Z,34.61
2022-07-31T17:03:59.308Z,35.18
2022-07-31T17:06:37.861Z,35.53
2022-07-31T17:09:24.805Z,35.53
2022-07-31T17:12:12.319Z,35.35
2022-07-31T17:14:58.866Z,35.44
2022-07-31T17:17:44.865Z,34.76
2022-07-31T17:20:31.671Z,35.10
2022-07-31T17:23:18.324Z,34.50
2022-07-31T17:26:24.622Z,35.19
2022-07-31T17:29:10.985Z,35.30
2022-07-31T17:31:57.361Z,34.65
2022-07-31T17:34:45.956Z,35.09
2022-07-31T17:37:32.415Z,34.77
2022-07-31T17:40:41.945Z,34.44
2022-07-31T17:43:27.731Z,35.23
2022-07-31T17:46:17.552Z,35.99
2022-07-31T17:49:11.860Z,36.83
2022-07-31T17:52:05.894Z,37.19
2022-07-31T17:54:53.775Z,37.31
2022-07-31T17:57:39.957Z,37.63
2022-07-31T18:00:27.812Z,38.28
2022-07-31T18:03:18.541Z,38.40
2022-07-31T18:06:05.292Z,38.53
2022-07-31T18:08:51.631Z,38.84
2022-07-31T18:11:37.667Z,38.96
2022-07-31T18:14:24.996Z,39.45
2022-07-31T18:17:11.768Z,40.06
2022-07-31T18:19:58.279Z,41.10
2022-07-31T18:22:49.503Z,41.06
2022-07-31T18:25:35.988Z,41.25
2022-07-31T18:28:21.995Z,41.40
2022-07-31T18:33:44.589Z,41.63
2022-07-31T18:36:30.162Z,41.76
2022-07-31T18:39:15.657Z,41.76
2022-07-31T18:42:01.095Z,42.15
2022-07-31T18:44:47.009Z,42.10
2022-07-31T18:47:33.885Z,42.19
2022-07-31T18:51:02.347Z,42.31
2022-07-31T18:53:25.296Z,42.61
2022-07-31T18:56:11.091Z,43.07
2022-07-31T18:58:56.950Z,43.06
2022-07-31T19:01:42.707Z,43.35
2022-07-31T19:04:28.673Z,43.22
2022-07-31T19:07:14.251Z,43.52
2022-07-31T19:09:59.895Z,43.71
2022-07-31T19:12:46.112Z,43.82
2022-07-31T19:15:31.898Z,44.45
2022-07-31T19:18:18.005Z,44.77
2022-07-31T19:21:23.335Z,45.06
2022-07-31T19:24:14.970Z,45.54
2022-07-31T19:27:00.352Z,45.81
2022-07-31T19:29:46.264Z,45.86
2022-07-31T19:32:32.413Z,45.96
2022-07-31T19:35:17.956Z,46.11
2022-07-31T19:38:04.305Z,46.46
2022-07-31T19:40:49.876Z,46.66
2022-07-31T19:43:35.783Z,46.77
2022-07-31T19:46:21.625Z,46.71
2022-07-31T19:49:07.161Z,46.60
2022-07-31T19:51:53.060Z,46.64
2022-07-31T19:54:39.821Z,46.87
2022-07-31T19:57:25.880Z,46.68
2022-07-31T20:00:12.926Z,46.82
2022-07-31T20:02:58.656Z,47.09
2022-07-31T20:05:44.264Z,47.29
2022-07-31T20:08:33.289Z,47.39
2022-07-31T20:11:19.324Z,47.64
2022-07-31T20:14:05.133Z,47.97
2022-07-31T20:16:50.546Z,47.64
2022-07-31T20:19:36.480Z,48.06
2022-07-31T20:22:42.141Z,48.19
2022-07-31T20:25:27.521Z,48.10
2022-07-31T20:28:13.018Z,48.19
2022-07-31T20:30:58.468Z,48.37
2022-07-31T20:33:56.605Z,48.57
2022-07-31T20:36:43.927Z,48.67
2022-07-31T20:39:34.104Z,48.72
2022-07-31T20:42:20.075Z,48.85
2022-07-31T20:45:05.991Z,49.14
2022-07-31T20:47:56.763Z,49.71
2022-07-31T20:50:42.396Z,50.01
2022-07-31T20:53:29.623Z,50.70
2022-07-31T20:56:15.368Z,51.09
2022-07-31T20:59:01.078Z,51.24
2022-07-31T21:01:47.086Z,51.74
2022-07-31T21:04:32.979Z,52.09
2022-07-31T21:07:18.518Z,52.73
2022-07-31T21:10:05.312Z,53.38
2022-07-31T21:12:50.770Z,53.83
2022-07-31T21:15:43.034Z,54.24
2022-07-31T21:18:34.736Z,54.53
2022-07-31T21:21:22.156Z,54.42
2022-07-31T21:24:08.098Z,54.79
2022-07-31T21:26:55.573Z,54.66
2022-07-31T21:29:44.181Z,54.83
2022-07-31T21:32:30.399Z,54.88
2022-07-31T21:35:16.718Z,55.14
2022-07-31T21:38:22.889Z,55.24
2022-07-31T21:41:08.974Z,55.26
2022-07-31T21:43:58.772Z,55.75
2022-07-31T21:46:51.703Z,55.95
2022-07-31T21:49:38.426Z,55.79
2022-07-31T21:52:24.025Z,56.19
2022-07-31T21:55:09.677Z,56.35
2022-07-31T21:58:01.331Z,56.32
2022-07-31T22:00:48.044Z,56.69
2022-07-31T22:03:34.613Z,56.91
2022-07-31T22:06:39.601Z,57.36
2022-07-31T22:09:26.827Z,57.31
2022-07-31T22:12:13.145Z,57.38
2022-07-31T22:14:59.559Z,57.59
2022-07-31T22:17:47.110Z,57.82
2022-07-31T22:20:33.212Z,58.10
2022-07-31T22:23:19.810Z,58.01
2022-07-31T22:26:06.317Z,58.32
2022-07-31T22:28:54.074Z,58.43
2022-07-31T22:31:40.263Z,58.38
2022-07-31T22:34:37.039Z,58.55
2022-07-31T22:37:26.170Z,58.50
2022-07-31T22:40:13.128Z,58.90
2022-07-31T22:43:02.325Z,58.85
2022-07-31T22:45:49.127Z,59.07
2022-07-31T22:48:36.447Z,59.17
2022-07-31T22:51:22.746Z,59.39
2022-07-31T22:54:09.037Z,59.20
2022-07-31T22:56:55.360Z,59.72
2022-07-31T22:59:42.038Z,59.47
2022-07-31T23:02:28.764Z,59.48
2022-07-31T23:05:14.707Z,59.13
2022-07-31T23:08:00.919Z,59.19
2022-07-31T23:10:47.304Z,59.44
2022-07-31T23:13:33.862Z,59.20
2022-07-31T23:16:20.723Z,59.14
2022-07-31T23:19:07.032Z,59.43
2022-07-31T23:21:53.338Z,59.59
2022-07-31T23:24:39.909Z,59.79
2022-07-31T23:27:26.356Z,59.75
2022-07-31T23:30:13.237Z,59.64
2022-07-31T23:32:59.348Z,59.96
2022-07-31T23:35:45.722Z,60.50
2022-07-31T23:38:32.059Z,60.85
2022-07-31T23:41:37.422Z,60.59
2022-07-31T23:44:25.065Z,60.82
2022-07-31T23:47:11.833Z,60.83
2022-07-31T23:50:04.280Z,61.02
2022-07-31T23:52:50.975Z,61.10
2022-07-31T23:55:41.729Z,60.99
2022-07-31T23:58:29.027Z,61.12
